Latest Weather Observations for Esperance Airport

IDW60801

Issued at 3:32 pm WST Monday 25 May 2015 (issued every 30 minutes, with the page automatically refreshed every 10 minutes)

About weather observations | Map of weather stations | Latest weather observations for WA | Other Formats
Station Details ID: 009542 Name: ESPERANCE AERO Lat: -33.68 Lon: 121.83 Height: 142.0 m
Data from the previous 72 hours. | See also: Recent months at Esperance Airport
Date/Time
WST
Temp
°C
App
Temp
°C
Dew
Point
Rel
Hum
%
Delta-T
°C
Wind Press
QNH
hPa
Press
MSL
hPa
Rain
since 9 am
mm
Dir
 
Spd
km/h
Gust
km/h
Spd
kts
Gust
kts
25/03:30pm 21.0 20.6 12.4 58 4.9 N 6 9 3 5 1020.3 1020.1 0.0
25/03:00pm 20.9 19.6 12.6 59 4.7 NW 11 15 6 8 1020.3 1020.1 0.0
25/02:30pm 20.7 19.5 12.7 60 4.6 WNW 11 17 6 9 1020.4 1020.2 0.0
25/02:00pm 21.0 21.2 12.9 60 4.6 NNW 4 11 2 6 1020.4 1020.2 0.0
25/01:30pm 20.6 20.1 12.6 60 4.5 WSW 7 17 4 9 1020.6 1020.4 0.0
25/01:00pm 20.2 19.2 12.4 61 4.4 NNW 9 13 5 7 1020.8 1020.7 0.0
25/12:30pm 20.1 19.4 13.3 65 3.9 N 9 13 5 7 1021.0 1020.9 0.0
25/12:00pm 19.7 18.5 14.1 70 3.2 N 13 17 7 9 1021.4 1021.3 0.0
25/11:30am 18.7 17.2 13.1 70 3.2 NNW 13 20 7 11 1021.8 1021.7 0.0
25/11:00am 18.1 16.7 14.4 79 2.1 NNW 15 20 8 11 1022.4 1022.3 0.0
25/10:30am 16.8 14.5 14.1 84 1.5 NNE 19 24 10 13 1022.8 1022.7 0.0
25/10:00am 15.8 13.4 13.8 88 1.1 N 19 24 10 13 1022.9 1022.8 0.0
25/09:30am 14.6 12.8 14.4 99 0.1 N 17 22 9 12 1023.1 1023.0 0.0
25/09:00am 13.3 11.9 13.3 100 0.0 N 13 17 7 9 1023.4 1023.3 2.2
25/08:30am 12.6 11.7 12.6 100 0.0 NNW 9 11 5 6 1023.5 1023.4 2.2
25/08:00am 12.2 9.7 12.2 100 0.0 NNE 17 20 9 11 1023.5 1023.4 2.2
25/07:52am 12.1 9.5 12.1 100 0.0 NNE 17 22 9 12 1023.4 1023.3 2.2
25/07:30am 11.2 7.8 11.2 100 0.0 N 20 26 11 14 1023.3 1023.2 2.2
25/07:00am 10.7 8.0 10.5 99 0.1 NNE 15 20 8 11 1023.2 1023.1 2.2
25/06:30am 10.9 7.9 10.7 99 0.1 NNE 17 22 9 12 1023.1 1023.0 2.2
25/06:00am 10.5 7.0 10.3 99 0.1 N 19 24 10 13 1023.0 1022.9 2.2
25/05:43am 10.1 6.9 9.9 99 0.1 NNE 17 24 9 13 1022.8 1022.7 2.0
25/05:40am 10.0 6.8 9.9 99 0.1 NNE 17 22 9 12 1022.8 1022.7 2.0
25/05:30am 10.0 7.6 9.9 99 0.1 NNE 13 17 7 9 1022.7 1022.6 2.0
25/05:00am 10.6 7.9 10.4 99 0.1 NNE 15 20 8 11 1022.7 1022.6 2.0
25/04:30am 11.2 8.7 11.0 99 0.1 NNE 15 19 8 10 1022.7 1022.6 2.0
25/04:00am 10.9 8.7 10.7 99 0.1 NNE 13 15 7 8 1022.6 1022.5 2.0
25/03:30am 10.8 8.5 10.6 99 0.1 NNE 13 17 7 9 1022.5 1022.4 2.0
25/03:00am 10.9 8.7 10.7 99 0.1 NNE 13 17 7 9 1022.5 1022.4 2.0
25/02:30am 10.9 8.7 10.7 99 0.1 NNE 13 17 7 9 1022.7 1022.6 2.0
25/02:00am 10.9 8.6 10.6 98 0.2 NNE 13 17 7 9 1022.7 1022.6 2.0
25/01:30am 11.4 8.9 10.9 97 0.3 NNE 15 19 8 10 1022.7 1022.6 2.0
25/01:00am 11.7 9.6 11.2 97 0.3 NNE 13 19 7 10 1022.7 1022.6 2.0
25/12:30am 11.8 10.1 11.2 96 0.3 NNE 11 15 6 8 1022.8 1022.7 2.0
25/12:00am 12.4 10.9 11.8 96 0.3 NE 11 17 6 9 1022.7 1022.6 2.0
 
Date/Time
WST
Temp
°C
App
Temp
°C
Dew
Point
Rel
Hum
%
Delta-T
°C
Wind Press
QNH
hPa
Press
MSL
hPa
Rain
since 9 am
mm
Dir
 
Spd
km/h
Gust
km/h
Spd
kts
Gust
kts
24/11:30pm 12.4 10.5 11.8 96 0.3 NE 13 19 7 10 1022.9 1022.8 2.0
24/11:00pm 12.4 10.9 11.8 96 0.3 NE 11 17 6 9 1022.9 1022.8 2.0
24/10:30pm 12.9 11.2 12.3 96 0.3 NE 13 19 7 10 1023.2 1023.1 2.0
24/10:00pm 12.9 11.5 12.1 95 0.4 NE 11 19 6 10 1023.3 1023.2 1.8
24/09:30pm 12.8 11.7 12.0 95 0.4 NE 9 13 5 7 1023.5 1023.4 1.8
24/09:00pm 13.0 12.0 12.2 95 0.4 ENE 9 13 5 7 1023.4 1023.3 1.8
24/08:30pm 13.2 12.3 12.7 97 0.3 E 9 11 5 6 1023.3 1023.2 1.8
24/08:00pm 12.9 12.0 12.7 99 0.1 E 9 11 5 6 1023.2 1023.1 1.8
24/07:30pm 12.6 11.6 12.4 99 0.1 ESE 9 11 5 6 1023.1 1023.0 1.8
24/07:00pm 12.3 11.8 12.1 99 0.1 SE 6 9 3 5 1023.0 1022.9 1.8
24/06:30pm 12.1 11.3 11.8 98 0.2 SE 7 9 4 5 1022.7 1022.6 1.8
24/06:00pm 12.8 12.3 12.5 98 0.2 SE 7 7 4 4 1022.5 1022.4 1.8
24/05:30pm 13.2 12.7 12.7 97 0.3 SE 7 9 4 5 1022.3 1022.2 1.8
24/05:00pm 13.8 13.5 13.2 96 0.3 S 7 11 4 6 1022.1 1022.0 1.8
24/04:30pm 14.0 13.6 13.1 94 0.5 S 7 11 4 6 1022.1 1022.0 1.8
24/04:00pm 14.4 14.3 13.4 94 0.6 S 6 7 3 4 1022.0 1021.9 1.8
24/03:51pm 14.4 14.1 13.4 94 0.6 S 7 9 4 5 1021.9 1021.8 1.8
24/03:30pm 14.4 14.2 13.6 95 0.4 S 7 9 4 5 1021.8 1021.7 1.8
24/03:17pm 14.3 13.3 13.3 94 0.6 SSE 11 17 6 9 1021.9 1021.8 1.6
24/03:07pm 14.7 13.4 13.7 94 0.6 SSE 13 15 7 8 1021.8 1021.7 1.4
24/03:00pm 14.8 13.9 13.7 93 0.6 SSE 11 15 6 8 1021.8 1021.7 1.0
24/02:58pm 14.8 13.9 13.7 93 0.6 SSE 11 15 6 8 1021.9 1021.8 1.0
24/02:48pm 15.1 14.9 13.5 90 0.9 S 7 13 4 7 1021.9 1021.8 0.8
24/02:46pm 15.2 15.1 13.4 89 1.0 SSE 6 11 3 6 1021.9 1021.8 0.8
24/02:30pm 16.1 15.4 13.2 83 1.6 SE 9 13 5 7 1021.8 1021.7 0.4
24/02:00pm 16.5 16.4 13.2 81 1.9 WSW 6 11 3 6 1021.6 1021.5 0.4
24/01:30pm 16.2 17.7 14.6 90 0.9 CALM 0 6 0 3 1021.7 1021.6 0.4
24/01:05pm 15.9 16.2 14.9 94 0.6 NNW 7 9 4 5 1021.8 1021.7 0.4
24/01:00pm 15.8 16.2 14.7 93 0.6 NW 6 7 3 4 1021.8 1021.7 0.4
24/12:46pm 15.3 15.5 14.3 94 0.6 NNW 6 7 3 4 1021.9 1021.8 0.4
24/12:30pm 15.5 16.9 14.4 93 0.6 CALM 0 0 0 0 1022.0 1021.9 0.4
24/12:04pm 15.4 16.8 14.3 93 0.6 CALM 0 0 0 0 1022.2 1022.1 0.2
24/12:00pm 15.4 16.8 14.3 93 0.6 CALM 0 0 0 0 1022.2 1022.1 0.2
24/11:54am 15.4 16.4 14.3 93 0.6 WNW 2 6 1 3 1022.3 1022.2 0.0
24/11:53am 15.5 16.5 14.4 93 0.6 WNW 2 6 1 3 1022.3 1022.2 0.0
24/11:40am 15.4 15.6 14.3 93 0.6 WSW 6 9 3 5 1022.4 1022.3 0.0
24/11:30am 15.4 15.4 14.3 93 0.6 WSW 7 11 4 6 1022.5 1022.4 0.0
24/11:28am 15.4 15.4 14.3 93 0.6 WSW 7 11 4 6 1022.5 1022.4 0.0
24/11:00am 15.4 14.3 14.4 94 0.6 WSW 13 15 7 8 1022.6 1022.5 0.0
24/10:49am 15.3 14.6 14.3 94 0.6 WSW 11 17 6 9 1022.8 1022.7 0.0
24/10:43am 15.8 15.4 15.2 96 0.3 WSW 11 13 6 7 1022.8 1022.7 0.0
24/10:30am 15.4 15.0 15.1 98 0.2 WSW 11 13 6 7 1022.7 1022.6 0.0
24/10:15am 15.0 14.5 14.8 99 0.1 WSW 11 15 6 8 1022.7 1022.6 0.0
24/10:00am 14.9 14.3 14.7 99 0.1 WSW 11 15 6 8 1022.8 1022.7 0.0
24/09:30am 14.1 14.2 13.9 99 0.1 NW 6 9 3 5 1022.7 1022.6 0.0
24/09:00am 13.3 12.9 13.1 99 0.1 NNW 7 9 4 5 1022.6 1022.5 2.2
24/08:30am 12.6 11.6 12.4 99 0.1 NNW 9 11 5 6 1022.5 1022.4 2.2
24/08:10am 12.4 11.4 12.2 99 0.1 NNW 9 11 5 6 1022.4 1022.3 2.2
24/08:09am 12.4 11.4 12.2 99 0.1 NNW 9 11 5 6 1022.4 1022.3 2.2
24/08:00am 12.2 11.1 12.0 99 0.1 NNW 9 13 5 7 1022.3 1022.2 2.2
24/07:30am 11.8 10.6 11.6 99 0.1 NW 9 11 5 6 1022.0 1021.9 2.2
24/07:05am 11.6 9.6 11.4 99 0.1 WNW 13 17 7 9 1021.8 1021.7 1.6
24/07:00am 11.7 9.7 11.5 99 0.1 WNW 13 17 7 9 1021.9 1021.8 1.6
24/06:30am 13.0 13.1 12.8 99 0.1 S 4 11 2 6 1021.3 1021.2 1.6
24/06:00am 13.2 14.1 13.0 99 0.1 CALM 0 0 0 0 1020.9 1020.8 1.6
24/05:30am 13.2 12.4 13.0 99 0.1 SW 9 11 5 6 1020.7 1020.6 1.6
24/05:29am 13.1 12.3 12.9 99 0.1 SW 9 11 5 6 1020.7 1020.6 1.6
24/05:00am 13.3 10.7 13.1 99 0.1 SSW 19 22 10 12 1020.6 1020.4 1.2
24/04:42am 12.5 10.7 12.2 98 0.2 SW 13 20 7 11 1020.6 1020.4 0.0
24/04:30am 11.0 8.7 10.4 96 0.3 W 13 17 7 9 1020.5 1020.3 0.0
24/04:18am 10.2 7.9 9.1 93 0.5 WNW 11 13 6 7 1020.4 1020.2 0.0
24/04:17am 10.1 8.2 9.0 93 0.5 WNW 9 11 5 6 1020.4 1020.2 0.0
24/04:01am 10.0 7.6 8.8 92 0.6 WNW 11 13 6 7 1020.2 1020.0 0.0
24/04:00am 10.0 7.6 8.8 92 0.6 WNW 11 13 6 7 1020.2 1020.0 0.0
24/03:30am 9.9 8.3 8.7 92 0.6 NW 7 9 4 5 1019.8 1019.6 0.0
24/03:00am 9.4 7.3 8.2 92 0.6 NW 9 9 5 5 1019.8 1019.6 0.0
24/02:30am 9.1 7.0 8.2 94 0.4 NW 9 9 5 5 1019.9 1019.7 0.0
24/02:00am 9.6 7.9 8.4 92 0.6 N 7 9 4 5 1019.8 1019.6 0.0
24/01:30am 10.3 8.6 8.4 88 0.9 NW 7 9 4 5 1019.6 1019.4 0.0
24/01:00am 8.9 6.8 6.5 85 1.1 NNW 7 9 4 5 1019.5 1019.3 0.0
24/12:30am 11.1 10.0 8.5 84 1.3 W 4 7 2 4 1019.5 1019.3 0.0
24/12:00am 11.4 11.0 8.3 81 1.5 CALM 0 0 0 0 1019.5 1019.3 0.0
 
Date/Time
WST
Temp
°C
App
Temp
°C
Dew
Point
Rel
Hum
%
Delta-T
°C
Wind Press
QNH
hPa
Press
MSL
hPa
Rain
since 9 am
mm
Dir
 
Spd
km/h
Gust
km/h
Spd
kts
Gust
kts
23/11:30pm 11.8 11.6 9.0 83 1.4 CALM 0 0 0 0 1019.5 1019.3 0.0
23/11:00pm 11.2 10.8 8.4 83 1.4 CALM 0 0 0 0 1019.5 1019.3 0.0
23/10:30pm 12.6 12.0 8.9 78 1.9 SSW 2 7 1 4 1019.3 1019.1 0.0
23/10:00pm 11.5 11.3 8.9 84 1.3 CALM 0 0 0 0 1019.2 1019.0 0.0
23/09:30pm 12.6 12.6 9.8 83 1.4 CALM 0 0 0 0 1019.4 1019.2 0.0
23/09:00pm 13.9 14.0 10.1 78 2.0 CALM 0 0 0 0 1019.4 1019.2 0.0
23/08:30pm 13.4 13.7 10.9 85 1.3 CALM 0 0 0 0 1019.3 1019.1 0.0
23/08:00pm 13.3 13.4 11.4 88 1.0 SW 2 6 1 3 1019.1 1018.9 0.0
23/07:30pm 12.4 11.3 10.6 89 0.9 SW 7 9 4 5 1019.0 1018.8 0.0
23/07:00pm 12.2 11.1 9.9 86 1.2 SSW 6 6 3 3 1018.8 1018.6 0.0
23/06:30pm 13.7 12.3 10.9 83 1.5 SSW 9 9 5 5 1018.7 1018.5 0.0
23/06:00pm 13.7 12.3 10.9 83 1.5 SSW 9 11 5 6 1018.5 1018.3 0.0
23/05:30pm 13.8 12.3 10.6 81 1.7 SSW 9 11 5 6 1018.2 1018.0 0.0
23/05:00pm 15.3 14.1 11.5 78 2.1 S 9 9 5 5 1018.0 1017.8 0.0
23/04:30pm 17.2 16.1 12.1 72 2.8 SSE 9 11 5 6 1017.7 1017.5 0.0
23/04:00pm 18.7 17.4 11.3 62 4.1 SSW 9 13 5 7 1017.5 1017.3 0.0
23/03:30pm 19.0 17.7 11.1 60 4.3 WSW 9 13 5 7 1017.3 1017.1 0.0
23/03:00pm 19.3 18.3 10.3 56 4.9 W 6 11 3 6 1017.3 1017.1 0.0
23/02:30pm 19.1 17.2 10.6 58 4.6 WSW 11 15 6 8 1017.1 1016.9 0.0
23/02:00pm 19.3 16.9 10.0 55 5.0 W 13 17 7 9 1017.1 1016.9 0.0
23/01:30pm 20.0 17.0 10.7 55 5.1 W 17 20 9 11 1017.3 1017.1 0.0
23/01:00pm 19.4 17.0 9.9 54 5.1 NW 13 17 7 9 1017.3 1017.1 0.0
23/12:30pm 19.1 15.9 9.9 55 4.9 WNW 17 22 9 12 1017.5 1017.3 0.0
23/12:00pm 19.5 16.5 10.5 56 4.9 WNW 17 22 9 12 1017.7 1017.5 0.0
23/11:30am 18.6 15.1 10.2 58 4.5 NW 19 24 10 13 1018.1 1017.9 0.0
23/11:00am 17.9 14.2 9.5 58 4.4 NW 19 26 10 14 1018.3 1018.1 0.0
23/10:30am 17.9 14.1 9.0 56 4.7 NNW 19 26 10 14 1018.4 1018.2 0.0
23/10:00am 15.3 11.0 7.8 61 3.8 N 20 26 11 14 1018.7 1018.5 0.0
23/09:30am 14.7 9.8 6.8 59 3.9 N 22 30 12 16 1018.9 1018.7 0.0
23/09:00am 14.1 9.1 6.5 60 3.7 N 22 32 12 17 1019.1 1018.9 0.0
23/08:30am 13.3 7.8 5.9 61 3.5 N 24 35 13 19 1019.1 1018.9 0.0
23/08:00am 12.1 5.7 5.3 63 3.2 N 28 33 15 18 1019.2 1019.0 0.0
23/07:30am 11.4 5.7 5.1 65 2.9 N 24 32 13 17 1019.2 1019.0 0.0
23/07:00am 10.7 4.9 4.4 65 2.8 N 24 32 13 17 1019.2 1019.0 0.0
23/06:30am 10.3 4.5 4.2 66 2.7 N 24 30 13 16 1019.0 1018.8 0.0
23/06:00am 9.8 3.6 4.2 68 2.5 N 26 32 14 17 1018.8 1018.6 0.0
23/05:30am 10.2 4.0 4.1 66 2.7 N 26 33 14 18 1018.8 1018.6 0.0
23/05:00am 10.4 4.6 4.3 66 2.7 N 24 30 13 16 1018.8 1018.6 0.0
23/04:30am 10.1 4.3 4.5 68 2.5 N 24 30 13 16 1018.6 1018.4 0.0
23/04:00am 10.3 4.1 4.2 66 2.7 N 26 30 14 16 1018.8 1018.6 0.0
23/03:30am 10.6 4.0 4.3 65 2.8 N 28 32 15 17 1018.9 1018.7 0.0
23/03:00am 10.8 4.2 4.3 64 2.9 N 28 33 15 18 1018.9 1018.7 0.0
23/02:30am 11.3 4.3 4.1 61 3.2 N 30 39 16 21 1019.1 1018.9 0.0
23/02:00am 11.2 4.6 4.2 62 3.1 N 28 37 15 20 1019.4 1019.2 0.0
23/01:30am 11.0 4.4 4.0 62 3.1 N 28 39 15 21 1019.5 1019.3 0.0
23/01:00am 11.1 4.9 4.1 62 3.1 NNE 26 33 14 18 1019.5 1019.3 0.0
23/12:30am 11.4 4.8 4.2 61 3.3 NNE 28 35 15 19 1019.7 1019.5 0.0
23/12:00am 11.4 5.6 4.4 62 3.2 NNE 24 33 13 18 1020.0 1019.8 0.0
 
Date/Time
WST
Temp
°C
App
Temp
°C
Dew
Point
Rel
Hum
%
Delta-T
°C
Wind Press
QNH
hPa
Press
MSL
hPa
Rain
since 9 am
mm
Dir
 
Spd
km/h
Gust
km/h
Spd
kts
Gust
kts
22/11:30pm 12.0 5.5 4.5 60 3.4 NNE 28 35 15 19 1020.4 1020.2 0.0
22/11:00pm 11.8 5.6 4.5 61 3.3 NNE 26 33 14 18 1020.7 1020.6 0.0
22/10:30pm 11.8 6.5 4.8 62 3.2 NNE 22 28 12 15 1020.9 1020.8 0.0
22/10:00pm 11.9 6.6 4.9 62 3.2 NNE 22 30 12 16 1021.2 1021.1 0.0
22/09:30pm 12.1 6.8 5.0 62 3.3 NNE 22 30 12 16 1021.3 1021.2 0.0
22/09:00pm 12.4 7.7 5.1 61 3.4 NNE 19 24 10 13 1021.7 1021.6 0.0
22/08:30pm 12.5 7.9 5.4 62 3.3 NNE 19 26 10 14 1021.9 1021.8 0.0
22/08:00pm 12.8 8.6 5.5 61 3.4 NNE 17 24 9 13 1021.9 1021.8 0.0
22/07:30pm 13.1 8.5 5.5 60 3.6 NNE 19 28 10 15 1021.9 1021.8 0.0
22/07:00pm 13.6 9.8 5.7 59 3.7 NE 15 20 8 11 1022.0 1021.9 0.0
22/06:30pm 14.0 10.2 5.9 58 3.9 NE 15 20 8 11 1022.0 1021.9 0.0
22/06:00pm 14.3 9.8 5.9 57 4.0 NNE 19 24 10 13 1022.0 1021.9 0.0
22/05:30pm 15.1 11.4 6.4 56 4.2 NE 15 20 8 11 1021.8 1021.7 0.0
22/05:00pm 15.8 13.2 6.3 53 4.6 NE 9 13 5 7 1021.6 1021.5 0.0
22/04:30pm 16.6 13.2 5.9 49 5.2 NNE 13 20 7 11 1021.4 1021.3 0.0
22/04:00pm 17.0 13.3 6.2 49 5.3 NNE 15 19 8 10 1021.4 1021.3 0.0

Other Formats:

Comma delimited format used in spreadsheet applications
http://www.bom.gov.au/fwo/IDW60801/IDW60801.95638.axf

JavaScript Object Notation format (JSON) in row-major order
http://www.bom.gov.au/fwo/IDW60801/IDW60801.95638.json